sensor_id;sensor_type;location;lat;lon;timestamp;pressure;altitude;pressure_sealevel;temperature;humidity
83152;BME280;73381;58.502;8.624;2024-02-21T00:01:16;99179.38;;;1.78;90.67
83152;BME280;73381;58.502;8.624;2024-02-21T00:04:21;99287.41;;;2.42;90.52
83152;BME280;73381;58.502;8.624;2024-02-21T00:07:23;99209.41;;;1.98;90.05
83152;BME280;73381;58.502;8.624;2024-02-21T00:10:26;99275.22;;;2.43;90.90
83152;BME280;73381;58.502;8.624;2024-02-21T00:13:28;99263.00;;;2.43;90.14
83152;BME280;73381;58.502;8.624;2024-02-21T00:16:33;99256.41;;;2.37;91.25
83152;BME280;73381;58.502;8.624;2024-02-21T00:19:39;99258.75;;;2.42;90.82
83152;BME280;73381;58.502;8.624;2024-02-21T00:22:41;99183.00;;;1.90;90.71
83152;BME280;73381;58.502;8.624;2024-02-21T00:25:44;99244.78;;;2.43;90.58
83152;BME280;73381;58.502;8.624;2024-02-21T00:28:48;99242.72;;;2.48;91.67
83152;BME280;73381;58.502;8.624;2024-02-21T00:31:51;99139.22;;;1.82;91.24
83152;BME280;73381;58.502;8.624;2024-02-21T00:34:55;99107.94;;;1.69;90.84
83152;BME280;73381;58.502;8.624;2024-02-21T00:37:57;99228.50;;;2.40;90.99
83152;BME280;73381;58.502;8.624;2024-02-21T00:40:59;99220.59;;;2.41;91.02
83152;BME280;73381;58.502;8.624;2024-02-21T00:44:10;99212.09;;;2.37;90.49
83152;BME280;73381;58.502;8.624;2024-02-21T00:47:15;99209.69;;;2.34;90.24
83152;BME280;73381;58.502;8.624;2024-02-21T00:50:18;99199.28;;;2.34;90.19
83152;BME280;73381;58.502;8.624;2024-02-21T00:53:23;99197.63;;;2.33;90.12
83152;BME280;73381;58.502;8.624;2024-02-21T00:56:26;99183.38;;;2.25;90.49
83152;BME280;73381;58.502;8.624;2024-02-21T00:59:28;99195.94;;;2.32;90.28
83152;BME280;73381;58.502;8.624;2024-02-21T01:02:30;99196.16;;;2.29;90.62
83152;BME280;73381;58.502;8.624;2024-02-21T01:05:33;99191.47;;;2.34;90.44
83152;BME280;73381;58.502;8.624;2024-02-21T01:08:35;99172.34;;;2.21;90.44
83152;BME280;73381;58.502;8.624;2024-02-21T01:11:37;99173.75;;;2.27;90.43
83152;BME280;73381;58.502;8.624;2024-02-21T01:14:39;99053.13;;;1.44;89.90
83152;BME280;73381;58.502;8.624;2024-02-21T01:17:42;99149.97;;;2.04;89.74
83152;BME280;73381;58.502;8.624;2024-02-21T01:20:45;98927.47;;;0.74;89.37
83152;BME280;73381;58.502;8.624;2024-02-21T01:23:48;99047.19;;;1.42;89.70
83152;BME280;73381;58.502;8.624;2024-02-21T01:26:54;99136.41;;;1.99;89.98
83152;BME280;73381;58.502;8.624;2024-02-21T01:30:00;99158.16;;;2.13;89.83
83152;BME280;73381;58.502;8.624;2024-02-21T01:33:11;99132.03;;;2.00;90.02
83152;BME280;73381;58.502;8.624;2024-02-21T01:36:15;99156.47;;;2.12;89.69
83152;BME280;73381;58.502;8.624;2024-02-21T01:39:17;98963.84;;;0.88;89.36
83152;BME280;73381;58.502;8.624;2024-02-21T01:42:20;99144.75;;;2.04;89.20
83152;BME280;73381;58.502;8.624;2024-02-21T01:45:22;99141.41;;;2.02;89.17
83152;BME280;73381;58.502;8.624;2024-02-21T01:48:25;99119.06;;;1.86;89.21
83152;BME280;73381;58.502;8.624;2024-02-21T01:51:29;99089.03;;;1.66;89.88
83152;BME280;73381;58.502;8.624;2024-02-21T01:54:32;99130.53;;;1.96;89.72
83152;BME280;73381;58.502;8.624;2024-02-21T01:57:34;99125.44;;;1.94;89.80
83152;BME280;73381;58.502;8.624;2024-02-21T02:00:38;98942.78;;;0.78;89.19
83152;BME280;73381;58.502;8.624;2024-02-21T02:03:45;99117.19;;;1.88;89.93
83152;BME280;73381;58.502;8.624;2024-02-21T02:06:51;98677.31;;;-1.10;88.76
83152;BME280;73381;58.502;8.624;2024-02-21T02:10:03;98652.59;;;-1.16;88.48
83152;BME280;73381;58.502;8.624;2024-02-21T02:13:12;98663.78;;;-1.15;88.94
83152;BME280;73381;58.502;8.624;2024-02-21T02:16:26;98645.69;;;-1.31;89.04
83152;BME280;73381;58.502;8.624;2024-02-21T02:19:35;98613.84;;;-1.47;88.91
83152;BME280;73381;58.502;8.624;2024-02-21T02:22:56;98928.69;;;0.54;87.76
83152;BME280;73381;58.502;8.624;2024-02-21T02:26:01;99112.03;;;1.59;88.53
83152;BME280;73381;58.502;8.624;2024-02-21T02:29:04;98750.09;;;-0.85;88.75
83152;BME280;73381;58.502;8.624;2024-02-21T02:32:06;98797.75;;;-0.27;88.74
83152;BME280;73381;58.502;8.624;2024-02-21T02:35:08;98828.41;;;-0.20;88.80
83152;BME280;73381;58.502;8.624;2024-02-21T02:38:12;98604.84;;;-1.56;89.33
83152;BME280;73381;58.502;8.624;2024-02-21T02:41:17;98942.50;;;0.83;90.55
83152;BME280;73381;58.502;8.624;2024-02-21T02:44:20;98951.41;;;0.93;90.82
83152;BME280;73381;58.502;8.624;2024-02-21T02:47:24;99099.84;;;2.01;91.54
83152;BME280;73381;58.502;8.624;2024-02-21T02:50:28;99051.53;;;1.83;91.88
83152;BME280;73381;58.502;8.624;2024-02-21T02:53:32;99088.06;;;2.22;92.42
83152;BME280;73381;58.502;8.624;2024-02-21T02:56:38;99101.75;;;2.38;93.05
83152;BME280;73381;58.502;8.624;2024-02-21T02:59:41;99099.97;;;2.39;92.64
83152;BME280;73381;58.502;8.624;2024-02-21T03:02:44;99058.34;;;2.12;92.02
83152;BME280;73381;58.502;8.624;2024-02-21T03:05:47;99092.16;;;2.26;91.41
83152;BME280;73381;58.502;8.624;2024-02-21T03:08:50;99031.53;;;1.70;90.22
83152;BME280;73381;58.502;8.624;2024-02-21T03:11:55;99075.72;;;1.85;89.82
83152;BME280;73381;58.502;8.624;2024-02-21T03:14:58;98921.34;;;0.75;90.43
83152;BME280;73381;58.502;8.624;2024-02-21T03:18:01;98824.25;;;0.06;88.72
83152;BME280;73381;58.502;8.624;2024-02-21T03:21:04;98832.69;;;-0.05;88.81
83152;BME280;73381;58.502;8.624;2024-02-21T03:24:08;98936.00;;;0.76;88.97
83152;BME280;73381;58.502;8.624;2024-02-21T03:27:12;99089.63;;;1.71;89.29
83152;BME280;73381;58.502;8.624;2024-02-21T03:30:14;98991.66;;;1.29;89.25
83152;BME280;73381;58.502;8.624;2024-02-21T03:33:16;99059.13;;;2.00;90.54
83152;BME280;73381;58.502;8.624;2024-02-21T03:36:18;99033.53;;;1.79;89.52
83152;BME280;73381;58.502;8.624;2024-02-21T03:39:20;99090.88;;;1.78;87.73
83152;BME280;73381;58.502;8.624;2024-02-21T03:42:23;99042.16;;;1.39;89.83
83152;BME280;73381;58.502;8.624;2024-02-21T03:45:25;99095.25;;;1.77;91.56
83152;BME280;73381;58.502;8.624;2024-02-21T03:48:27;99074.97;;;1.83;91.63
83152;BME280;73381;58.502;8.624;2024-02-21T03:51:29;99037.06;;;1.78;92.99
83152;BME280;73381;58.502;8.624;2024-02-21T03:54:31;98955.13;;;1.44;92.40
83152;BME280;73381;58.502;8.624;2024-02-21T03:57:34;99082.06;;;2.07;92.59
83152;BME280;73381;58.502;8.624;2024-02-21T04:00:36;99135.34;;;2.16;92.63
83152;BME280;73381;58.502;8.624;2024-02-21T04:03:38;99122.38;;;2.29;92.64
83152;BME280;73381;58.502;8.624;2024-02-21T04:06:46;99094.88;;;2.37;92.50
83152;BME280;73381;58.502;8.624;2024-02-21T04:09:48;99086.22;;;2.37;92.70
83152;BME280;73381;58.502;8.624;2024-02-21T04:12:51;99069.16;;;2.06;92.29
83152;BME280;73381;58.502;8.624;2024-02-21T04:15:53;99161.81;;;2.50;92.18
83152;BME280;73381;58.502;8.624;2024-02-21T04:18:55;99142.06;;;2.60;91.52
83152;BME280;73381;58.502;8.624;2024-02-21T04:21:58;99117.91;;;2.71;91.39
83152;BME280;73381;58.502;8.624;2024-02-21T04:25:01;99112.16;;;2.78;91.06
83152;BME280;73381;58.502;8.624;2024-02-21T04:28:05;99101.97;;;2.75;90.41
83152;BME280;73381;58.502;8.624;2024-02-21T04:31:07;99101.97;;;2.75;90.68
83152;BME280;73381;58.502;8.624;2024-02-21T04:34:08;99141.91;;;2.88;90.71
83152;BME280;73381;58.502;8.624;2024-02-21T04:37:11;99094.56;;;2.69;89.71
83152;BME280;73381;58.502;8.624;2024-02-21T04:40:13;99102.38;;;2.69;90.02
83152;BME280;73381;58.502;8.624;2024-02-21T04:43:19;99134.00;;;2.90;89.47
83152;BME280;73381;58.502;8.624;2024-02-21T04:46:21;99065.22;;;2.65;88.62
83152;BME280;73381;58.502;8.624;2024-02-21T04:49:25;99137.75;;;2.86;89.48
83152;BME280;73381;58.502;8.624;2024-02-21T04:52:30;98969.28;;;1.80;88.96
83152;BME280;73381;58.502;8.624;2024-02-21T04:55:33;99026.06;;;2.15;89.43
83152;BME280;73381;58.502;8.624;2024-02-21T04:58:39;99137.50;;;2.76;89.30
83152;BME280;73381;58.502;8.624;2024-02-21T05:01:41;99146.88;;;2.66;89.69
83152;BME280;73381;58.502;8.624;2024-02-21T05:04:43;99062.78;;;2.10;89.78
83152;BME280;73381;58.502;8.624;2024-02-21T05:07:48;98749.91;;;0.19;89.30
83152;BME280;73381;58.502;8.624;2024-02-21T05:10:50;98765.06;;;0.40;88.79
83152;BME280;73381;58.502;8.624;2024-02-21T05:17:22;98903.56;;;1.37;88.50
83152;BME280;73381;58.502;8.624;2024-02-21T05:20:25;99137.75;;;2.86;88.34
83152;BME280;73381;58.502;8.624;2024-02-21T05:23:28;99064.66;;;2.08;87.69
83152;BME280;73381;58.502;8.624;2024-02-21T05:26:32;99145.75;;;2.70;88.00
83152;BME280;73381;58.502;8.624;2024-02-21T05:29:44;98842.28;;;0.79;88.21
83152;BME280;73381;58.502;8.624;2024-02-21T05:32:49;98977.84;;;1.55;88.62
83152;BME280;73381;58.502;8.624;2024-02-21T05:35:52;98752.88;;;-0.15;88.13
83152;BME280;73381;58.502;8.624;2024-02-21T05:38:55;98897.03;;;0.90;88.56
83152;BME280;73381;58.502;8.624;2024-02-21T05:42:01;98811.56;;;0.30;87.63
83152;BME280;73381;58.502;8.624;2024-02-21T05:45:09;98969.94;;;1.57;87.41
83152;BME280;73381;58.502;8.624;2024-02-21T05:48:12;98765.00;;;0.13;86.75
83152;BME280;73381;58.502;8.624;2024-02-21T05:51:19;98930.69;;;1.06;86.61
83152;BME280;73381;58.502;8.624;2024-02-21T05:54:22;99193.72;;;2.80;87.37
83152;BME280;73381;58.502;8.624;2024-02-21T05:57:26;99078.38;;;1.70;86.84
83152;BME280;73381;58.502;8.624;2024-02-21T06:00:36;99224.06;;;2.81;86.79
83152;BME280;73381;58.502;8.624;2024-02-21T06:03:47;98768.44;;;-0.15;86.28
83152;BME280;73381;58.502;8.624;2024-02-21T06:06:55;99225.00;;;2.80;86.64
83152;BME280;73381;58.502;8.624;2024-02-21T06:09:59;98761.78;;;-0.19;86.18
83152;BME280;73381;58.502;8.624;2024-02-21T06:13:02;98711.47;;;-0.31;86.45
83152;BME280;73381;58.502;8.624;2024-02-21T06:16:08;99044.34;;;1.73;86.60
83152;BME280;73381;58.502;8.624;2024-02-21T06:19:13;98980.66;;;1.38;85.92
83152;BME280;73381;58.502;8.624;2024-02-21T06:25:35;99242.94;;;2.72;86.96
83152;BME280;73381;58.502;8.624;2024-02-21T06:28:38;99262.63;;;2.76;86.56
83152;BME280;73381;58.502;8.624;2024-02-21T06:31:41;99114.59;;;1.88;86.80
83152;BME280;73381;58.502;8.624;2024-02-21T06:34:45;99024.66;;;0.85;86.52
83152;BME280;73381;58.502;8.624;2024-02-21T06:37:49;98816.19;;;-0.04;86.44
83152;BME280;73381;58.502;8.624;2024-02-21T06:43:58;99266.75;;;2.66;85.49
83152;BME280;73381;58.502;8.624;2024-02-21T07:00:39;99266.25;;;2.47;85.25
83152;BME280;73381;58.502;8.624;2024-02-21T07:03:47;98736.25;;;-0.84;85.31
83152;BME280;73381;58.502;8.624;2024-02-21T07:13:04;99103.19;;;1.47;84.51
83152;BME280;73381;58.502;8.624;2024-02-21T07:19:43;99018.66;;;0.55;84.45
83152;BME280;73381;58.502;8.624;2024-02-21T07:23:09;99320.03;;;2.62;84.53
83152;BME280;73381;58.502;8.624;2024-02-21T07:26:21;98963.38;;;0.67;83.83
83152;BME280;73381;58.502;8.624;2024-02-21T07:33:11;99322.50;;;2.78;83.81
83152;BME280;73381;58.502;8.624;2024-02-21T07:36:28;99016.75;;;1.01;83.27
83152;BME280;73381;58.502;8.624;2024-02-21T07:39:38;98882.03;;;0.38;83.13
83152;BME280;73381;58.502;8.624;2024-02-21T07:42:48;98729.91;;;-0.36;82.32
83152;BME280;73381;58.502;8.624;2024-02-21T07:46:11;99093.41;;;1.65;82.67
83152;BME280;73381;58.502;8.624;2024-02-21T07:49:17;99321.44;;;2.94;82.70
83152;BME280;73381;58.502;8.624;2024-02-21T07:55:38;98785.22;;;-0.35;83.44
83152;BME280;73381;58.502;8.624;2024-02-21T07:58:44;99136.91;;;1.63;83.14
83152;BME280;73381;58.502;8.624;2024-02-21T08:01:55;98947.06;;;0.65;83.52
83152;BME280;73381;58.502;8.624;2024-02-21T08:05:08;98811.25;;;-0.37;83.92
83152;BME280;73381;58.502;8.624;2024-02-21T08:21:36;99090.94;;;1.35;83.04
83152;BME280;73381;58.502;8.624;2024-02-21T08:24:41;99048.50;;;0.92;83.27
83152;BME280;73381;58.502;8.624;2024-02-21T08:27:46;98911.59;;;-0.23;83.61
83152;BME280;73381;58.502;8.624;2024-02-21T08:30:53;98892.66;;;-0.09;83.30
83152;BME280;73381;58.502;8.624;2024-02-21T08:34:13;99343.28;;;2.65;83.21
83152;BME280;73381;58.502;8.624;2024-02-21T08:40:32;98860.44;;;-0.35;82.27
83152;BME280;73381;58.502;8.624;2024-02-21T08:43:39;99362.06;;;2.84;82.94
83152;BME280;73381;58.502;8.624;2024-02-21T08:46:41;99349.22;;;2.81;82.73
83152;BME280;73381;58.502;8.624;2024-02-21T08:49:44;99348.84;;;2.87;82.22
83152;BME280;73381;58.502;8.624;2024-02-21T08:52:53;99021.66;;;1.20;80.71
83152;BME280;73381;58.502;8.624;2024-02-21T16:19:54;98741.59;;;2.95;77.69
83152;BME280;73381;58.502;8.624;2024-02-21T16:32:10;98639.88;;;2.01;79.37
83152;BME280;73381;58.502;8.624;2024-02-21T16:48:11;98406.56;;;0.43;80.26
83152;BME280;73381;58.502;8.624;2024-02-21T16:51:15;98816.72;;;2.90;81.18
83152;BME280;73381;58.502;8.624;2024-02-21T18:41:13;98715.97;;;2.54;86.83
83152;BME280;73381;58.502;8.624;2024-02-21T18:47:32;98482.16;;;0.89;87.17
83152;BME280;73381;58.502;8.624;2024-02-21T18:50:35;98462.53;;;0.85;86.57
83152;BME280;73381;58.502;8.624;2024-02-21T18:53:38;98411.94;;;0.65;86.61
83152;BME280;73381;58.502;8.624;2024-02-21T18:56:45;98693.88;;;2.47;87.34
83152;BME280;73381;58.502;8.624;2024-02-21T18:59:50;98403.19;;;0.66;87.72
83152;BME280;73381;58.502;8.624;2024-02-21T19:02:58;98282.59;;;-0.43;87.21
83152;BME280;73381;58.502;8.624;2024-02-21T19:06:02;98202.34;;;-0.70;87.49
83152;BME280;73381;58.502;8.624;2024-02-21T19:09:04;98671.81;;;2.40;87.38
83152;BME280;73381;58.502;8.624;2024-02-21T19:12:09;98628.34;;;2.17;87.26
83152;BME280;73381;58.502;8.624;2024-02-21T19:15:16;98515.66;;;1.43;87.11
83152;BME280;73381;58.502;8.624;2024-02-21T19:18:22;98643.66;;;2.21;87.18
83152;BME280;73381;58.502;8.624;2024-02-21T19:21:30;98641.34;;;2.29;87.59
83152;BME280;73381;58.502;8.624;2024-02-21T19:24:32;98470.91;;;1.38;88.03
83152;BME280;73381;58.502;8.624;2024-02-21T19:27:36;98617.94;;;2.41;88.59
83152;BME280;73381;58.502;8.624;2024-02-21T19:30:38;98618.66;;;2.43;87.33
83152;BME280;73381;58.502;8.624;2024-02-21T19:33:40;98596.59;;;2.35;88.47
83152;BME280;73381;58.502;8.624;2024-02-21T19:36:42;98587.69;;;2.27;88.65
83152;BME280;73381;58.502;8.624;2024-02-21T19:39:44;98585.81;;;2.29;88.80
83152;BME280;73381;58.502;8.624;2024-02-21T19:42:47;98579.53;;;2.31;89.34
83152;BME280;73381;58.502;8.624;2024-02-21T19:45:49;98569.72;;;2.35;90.06
83152;BME280;73381;58.502;8.624;2024-02-21T19:48:51;98471.31;;;1.68;90.21
83152;BME280;73381;58.502;8.624;2024-02-21T19:51:53;98568.06;;;2.34;90.21
83152;BME280;73381;58.502;8.624;2024-02-21T19:54:56;98557.09;;;2.42;90.80
83152;BME280;73381;58.502;8.624;2024-02-21T19:57:59;98563.59;;;2.47;90.37
83152;BME280;73381;58.502;8.624;2024-02-21T20:01:01;98547.19;;;2.58;90.18
83152;BME280;73381;58.502;8.624;2024-02-21T20:04:06;98430.38;;;1.94;90.44
83152;BME280;73381;58.502;8.624;2024-02-21T20:07:08;98537.97;;;2.76;90.68
83152;BME280;73381;58.502;8.624;2024-02-21T20:10:11;98530.63;;;2.81;90.95
83152;BME280;73381;58.502;8.624;2024-02-21T20:13:14;98455.03;;;2.48;91.07
83152;BME280;73381;58.502;8.624;2024-02-21T20:16:16;98395.41;;;2.21;91.16
83152;BME280;73381;58.502;8.624;2024-02-21T20:19:18;98503.19;;;3.00;91.58
83152;BME280;73381;58.502;8.624;2024-02-21T20:22:20;98321.28;;;1.91;90.96
83152;BME280;73381;58.502;8.624;2024-02-21T20:25:23;98460.00;;;2.95;91.48
83152;BME280;73381;58.502;8.624;2024-02-21T20:28:26;98473.44;;;3.13;92.23
83152;BME280;73381;58.502;8.624;2024-02-21T20:31:28;98454.09;;;3.05;91.75
83152;BME280;73381;58.502;8.624;2024-02-21T20:34:30;98472.09;;;3.08;92.12
83152;BME280;73381;58.502;8.624;2024-02-21T20:37:33;98439.28;;;3.16;91.63
83152;BME280;73381;58.502;8.624;2024-02-21T20:40:35;98441.16;;;3.25;91.66
83152;BME280;73381;58.502;8.624;2024-02-21T20:43:39;98313.63;;;2.57;91.61
83152;BME280;73381;58.502;8.624;2024-02-21T20:46:43;98422.84;;;3.37;91.59
83152;BME280;73381;58.502;8.624;2024-02-21T20:49:45;98350.28;;;2.98;92.14
83152;BME280;73381;58.502;8.624;2024-02-21T20:52:48;98414.47;;;3.33;91.81
83152;BME280;73381;58.502;8.624;2024-02-21T20:55:50;98408.97;;;3.36;91.75
83152;BME280;73381;58.502;8.624;2024-02-21T20:58:55;98400.19;;;3.37;91.60
83152;BME280;73381;58.502;8.624;2024-02-21T21:01:58;98279.88;;;2.55;91.56
83152;BME280;73381;58.502;8.624;2024-02-21T21:05:11;98358.03;;;3.21;91.89
83152;BME280;73381;58.502;8.624;2024-02-21T21:08:22;98390.00;;;3.45;91.56
83152;BME280;73381;58.502;8.624;2024-02-21T21:11:25;98390.25;;;3.42;91.41
83152;BME280;73381;58.502;8.624;2024-02-21T21:14:40;98362.97;;;3.35;91.84
83152;BME280;73381;58.502;8.624;2024-02-21T21:17:43;98067.72;;;1.62;91.88
83152;BME280;73381;58.502;8.624;2024-02-21T21:20:44;98009.94;;;1.36;91.38
83152;BME280;73381;58.502;8.624;2024-02-21T21:23:48;98348.91;;;3.58;91.94
83152;BME280;73381;58.502;8.624;2024-02-21T21:26:55;98322.59;;;3.50;92.02
83152;BME280;73381;58.502;8.624;2024-02-21T21:30:06;98109.50;;;2.15;91.59
83152;BME280;73381;58.502;8.624;2024-02-21T21:33:08;98324.03;;;3.54;91.75
83152;BME280;73381;58.502;8.624;2024-02-21T21:36:10;98333.25;;;3.58;92.07
83152;BME280;73381;58.502;8.624;2024-02-21T21:39:16;98328.34;;;3.65;91.38
83152;BME280;73381;58.502;8.624;2024-02-21T21:42:18;98045.97;;;1.95;91.48
83152;BME280;73381;58.502;8.624;2024-02-21T21:45:22;98071.38;;;2.14;91.45
83152;BME280;73381;58.502;8.624;2024-02-21T21:54:52;98305.06;;;3.73;91.68
83152;BME280;73381;58.502;8.624;2024-02-21T21:58:02;98070.09;;;2.40;91.95
83152;BME280;73381;58.502;8.624;2024-02-21T22:04:40;98281.56;;;3.73;91.47
83152;BME280;73381;58.502;8.624;2024-02-21T22:07:46;98017.13;;;1.98;91.73
83152;BME280;73381;58.502;8.624;2024-02-21T22:10:48;98095.16;;;2.73;92.01
83152;BME280;73381;58.502;8.624;2024-02-21T22:13:55;98262.53;;;3.82;91.83
83152;BME280;73381;58.502;8.624;2024-02-21T22:17:22;97963.47;;;2.06;91.82
83152;BME280;73381;58.502;8.624;2024-02-21T22:23:57;97784.44;;;0.74;91.28
83152;BME280;73381;58.502;8.624;2024-02-21T22:27:02;98038.22;;;2.68;91.98
83152;BME280;73381;58.502;8.624;2024-02-21T22:33:22;98230.38;;;3.92;92.26
83152;BME280;73381;58.502;8.624;2024-02-21T22:36:25;97882.97;;;1.94;92.04
83152;BME280;73381;58.502;8.624;2024-02-21T22:39:27;98161.81;;;3.90;92.53
83152;BME280;73381;58.502;8.624;2024-02-21T22:42:38;98195.63;;;3.91;92.10
83152;BME280;73381;58.502;8.624;2024-02-21T22:45:44;97856.13;;;2.14;92.09
83152;BME280;73381;58.502;8.624;2024-02-21T22:48:56;97663.03;;;0.76;92.06
83152;BME280;73381;58.502;8.624;2024-02-21T22:52:01;98024.91;;;3.23;92.73
83152;BME280;73381;58.502;8.624;2024-02-21T22:55:06;97966.38;;;2.76;92.65
83152;BME280;73381;58.502;8.624;2024-02-21T22:58:24;97958.63;;;2.85;92.27
83152;BME280;73381;58.502;8.624;2024-02-21T23:01:26;98122.69;;;3.99;92.40
83152;BME280;73381;58.502;8.624;2024-02-21T23:04:30;98053.88;;;3.60;92.63
83152;BME280;73381;58.502;8.624;2024-02-21T23:07:33;97607.78;;;0.95;92.26
83152;BME280;73381;58.502;8.624;2024-02-21T23:10:36;98097.94;;;4.03;92.44
83152;BME280;73381;58.502;8.624;2024-02-21T23:17:01;97745.31;;;1.91;91.89
83152;BME280;73381;58.502;8.624;2024-02-21T23:20:09;98083.94;;;4.04;91.94
83152;BME280;73381;58.502;8.624;2024-02-21T23:23:11;97780.00;;;2.01;91.95
83152;BME280;73381;58.502;8.624;2024-02-21T23:26:13;98062.47;;;4.01;92.26
83152;BME280;73381;58.502;8.624;2024-02-21T23:29:19;97903.38;;;3.01;92.08
83152;BME280;73381;58.502;8.624;2024-02-21T23:32:23;97676.16;;;1.67;91.53
83152;BME280;73381;58.502;8.624;2024-02-21T23:35:26;98051.75;;;4.04;92.25
83152;BME280;73381;58.502;8.624;2024-02-21T23:38:29;97934.59;;;3.32;91.96
83152;BME280;73381;58.502;8.624;2024-02-21T23:44:44;98033.91;;;4.09;92.30
83152;BME280;73381;58.502;8.624;2024-02-21T23:47:47;97941.78;;;3.58;92.09
83152;BME280;73381;58.502;8.624;2024-02-21T23:50:51;97749.97;;;2.27;91.87
83152;BME280;73381;58.502;8.624;2024-02-21T23:54:03;97598.63;;;1.52;91.96
83152;BME280;73381;58.502;8.624;2024-02-21T23:57:06;97752.03;;;2.33;92.03
